createdAt,value
2018-03-03T00:02:31.575Z,84.68
2018-03-03T00:05:11.544Z,69.72
2018-03-03T00:07:49.901Z,80.68
2018-03-03T00:10:25.831Z,88.57
2018-03-03T00:13:02.836Z,71.10
2018-03-03T00:15:39.065Z,81.85
2018-03-03T00:18:13.653Z,77.68
2018-03-03T00:20:56.533Z,76.43
2018-03-03T00:23:32.933Z,80.70
2018-03-03T00:26:16.138Z,89.22
2018-03-03T00:28:53.107Z,79.70
2018-03-03T00:31:28.397Z,73.70
2018-03-03T00:34:03.916Z,81.87
2018-03-03T00:36:34.082Z,83.03
2018-03-03T00:39:11.214Z,78.35
2018-03-03T00:41:46.965Z,85.50
2018-03-03T00:44:24.380Z,83.75
2018-03-03T00:47:01.694Z,88.10
2018-03-03T00:49:39.295Z,81.45
2018-03-03T00:52:16.314Z,85.70
2018-03-03T00:54:53.130Z,93.47
2018-03-03T00:57:31.243Z,75.75
2018-03-03T01:00:08.948Z,87.05
2018-03-03T01:02:51.610Z,89.05
2018-03-03T01:05:32.507Z,90.78
2018-03-03T01:08:10.109Z,77.80
2018-03-03T01:10:45.422Z,84.65
2018-03-03T01:13:22.026Z,86.95
2018-03-03T01:15:58.800Z,73.82
2018-03-03T01:18:35.740Z,79.47
2018-03-03T01:21:12.893Z,71.78
2018-03-03T01:23:50.161Z,80.85
2018-03-03T01:26:27.969Z,90.80
2018-03-03T01:29:04.913Z,87.93
2018-03-03T01:31:47.454Z,86.70
2018-03-03T01:34:23.448Z,79.30
2018-03-03T01:37:01.043Z,79.10
2018-03-03T01:39:37.793Z,79.97
2018-03-03T01:42:14.325Z,85.55
2018-03-03T01:44:50.534Z,75.57
2018-03-03T01:47:28.130Z,80.95
2018-03-03T01:50:07.047Z,75.10
2018-03-03T01:52:44.416Z,86.65
2018-03-03T01:55:27.070Z,81.90
2018-03-03T01:58:02.796Z,75.40
2018-03-03T02:00:38.687Z,75.72
2018-03-03T02:03:15.806Z,72.70
2018-03-03T02:05:52.615Z,79.62
2018-03-03T02:08:28.981Z,83.30
2018-03-03T02:11:05.817Z,78.28
2018-03-03T02:13:41.209Z,84.20
2018-03-03T02:16:18.955Z,81.15
2018-03-03T02:18:55.241Z,82.10
2018-03-03T02:21:30.855Z,74.25
2018-03-03T02:24:08.697Z,88.78
2018-03-03T02:26:45.725Z,86.80
2018-03-03T02:29:24.612Z,91.70
2018-03-03T02:32:01.885Z,80.38
2018-03-03T02:34:38.762Z,78.00
2018-03-03T02:37:15.381Z,82.43
2018-03-03T02:39:53.058Z,81.15
2018-03-03T02:42:30.095Z,79.43
2018-03-03T02:45:05.878Z,73.18
2018-03-03T02:47:43.697Z,80.87
2018-03-03T02:50:18.760Z,77.93
2018-03-03T02:52:56.375Z,89.68
2018-03-03T02:55:34.046Z,86.35
2018-03-03T02:58:10.980Z,82.03
2018-03-03T03:00:46.879Z,82.12
2018-03-03T03:03:25.148Z,91.20
2018-03-03T03:06:01.212Z,85.03
2018-03-03T03:08:38.166Z,79.72
2018-03-03T03:11:15.232Z,87.37
2018-03-03T03:13:52.385Z,80.25
2018-03-03T03:16:29.304Z,74.03
2018-03-03T03:19:06.203Z,71.55
2018-03-03T03:21:43.542Z,73.95
2018-03-03T03:24:20.761Z,80.65
2018-03-03T03:26:56.965Z,73.47
2018-03-03T03:29:32.188Z,73.70
2018-03-03T03:32:09.769Z,76.72
2018-03-03T03:34:48.983Z,66.70
2018-03-03T03:37:25.918Z,77.65
2018-03-03T03:40:02.619Z,74.10
2018-03-03T03:42:39.841Z,73.60
2018-03-03T03:45:22.649Z,77.50
2018-03-03T03:47:59.187Z,73.55
2018-03-03T03:50:37.365Z,77.05
2018-03-03T03:53:14.198Z,76.72
2018-03-03T03:55:51.713Z,78.03
2018-03-03T03:58:29.902Z,80.53
2018-03-03T04:01:05.699Z,79.62
2018-03-03T04:03:41.097Z,78.65
2018-03-03T04:06:19.510Z,81.68
2018-03-03T04:08:58.614Z,78.05
2018-03-03T04:11:35.351Z,76.40
2018-03-03T04:14:11.205Z,76.20
2018-03-03T04:16:47.078Z,84.80
2018-03-03T04:19:24.932Z,76.87
2018-03-03T04:22:01.769Z,76.32
2018-03-03T04:24:40.674Z,80.55
2018-03-03T04:27:18.817Z,79.53
2018-03-03T04:29:55.480Z,77.82
2018-03-03T04:32:37.844Z,79.87
2018-03-03T04:35:15.070Z,78.55
2018-03-03T04:37:53.521Z,73.15
2018-03-03T04:40:30.296Z,69.97
2018-03-03T04:43:00.976Z,75.78
2018-03-03T04:45:38.945Z,71.25
2018-03-03T04:48:16.261Z,73.95
2018-03-03T04:50:57.425Z,71.78
2018-03-03T04:53:36.023Z,78.50
2018-03-03T04:56:12.525Z,71.87
2018-03-03T04:58:56.498Z,74.32
2018-03-03T05:01:44.163Z,73.45
2018-03-03T05:04:31.970Z,72.78
2018-03-03T05:07:17.700Z,71.53
2018-03-03T05:10:01.735Z,69.82
2018-03-03T05:12:32.969Z,69.53
2018-03-03T05:15:30.853Z,73.43
2018-03-03T05:18:07.435Z,71.40
2018-03-03T05:20:48.685Z,71.75
2018-03-03T05:23:31.399Z,67.60
2018-03-03T05:26:13.511Z,78.65
2018-03-03T05:28:55.859Z,71.37
2018-03-03T05:31:38.514Z,72.05
2018-03-03T05:34:20.323Z,74.97
2018-03-03T05:37:02.333Z,67.43
2018-03-03T05:39:45.082Z,70.18
2018-03-03T05:42:43.120Z,78.32
2018-03-03T05:48:14.872Z,69.15
2018-03-03T05:50:51.549Z,77.37
2018-03-03T05:53:48.320Z,68.68
2018-03-03T05:59:16.506Z,62.83
2018-03-03T06:02:00.648Z,66.32
2018-03-03T06:04:47.566Z,69.68
2018-03-03T06:07:42.007Z,64.53
2018-03-03T06:12:59.694Z,65.55
2018-03-03T06:15:35.334Z,62.65
2018-03-03T06:18:10.873Z,68.95
2018-03-03T06:20:48.190Z,75.05
2018-03-03T06:23:25.504Z,66.62
2018-03-03T06:26:00.684Z,68.35
2018-03-03T06:28:36.420Z,64.68
2018-03-03T06:31:13.712Z,66.07
2018-03-03T06:33:49.026Z,63.40
2018-03-03T06:36:25.881Z,72.35
2018-03-03T06:38:56.678Z,75.47
2018-03-03T06:41:33.688Z,66.62
2018-03-03T06:44:10.413Z,61.35
2018-03-03T06:46:47.433Z,70.00
2018-03-03T06:49:25.059Z,63.63
2018-03-03T06:52:01.581Z,67.00
2018-03-03T06:54:37.886Z,59.72
2018-03-03T06:57:13.337Z,66.85
2018-03-03T06:59:44.658Z,65.75
2018-03-03T07:02:21.744Z,66.30
2018-03-03T07:04:58.449Z,64.35
2018-03-03T07:07:35.580Z,63.13
2018-03-03T07:10:11.719Z,65.60
2018-03-03T07:12:50.970Z,64.22
2018-03-03T07:15:29.535Z,62.13
2018-03-03T07:18:07.772Z,67.97
2018-03-03T07:20:43.062Z,60.55
2018-03-03T07:23:20.455Z,63.75
2018-03-03T07:25:56.248Z,68.95
2018-03-03T07:28:34.810Z,60.65
2018-03-03T07:31:11.247Z,62.33
2018-03-03T07:33:47.851Z,64.37
2018-03-03T07:36:29.995Z,59.97
2018-03-03T07:39:10.332Z,59.35
2018-03-03T07:41:45.977Z,61.35
2018-03-03T07:44:22.527Z,62.53
2018-03-03T07:46:59.100Z,68.80
2018-03-03T07:49:35.798Z,67.07
2018-03-03T07:52:12.625Z,66.75
2018-03-03T07:54:50.293Z,59.47
2018-03-03T07:57:27.183Z,64.30
2018-03-03T08:00:04.761Z,62.97
2018-03-03T08:02:41.396Z,62.55
2018-03-03T08:05:19.167Z,57.67
2018-03-03T08:07:56.194Z,56.55
2018-03-03T08:10:34.157Z,63.30
2018-03-03T08:13:11.111Z,61.97
2018-03-03T08:15:50.182Z,60.70
2018-03-03T08:18:29.279Z,69.12
2018-03-03T08:21:05.139Z,66.82
2018-03-03T08:23:42.878Z,63.70
2018-03-03T08:26:21.074Z,65.95
2018-03-03T08:28:55.675Z,58.03
2018-03-03T08:31:33.261Z,55.60
2018-03-03T08:34:09.715Z,61.45
2018-03-03T08:36:45.428Z,64.20
2018-03-03T08:39:24.331Z,67.03
2018-03-03T08:42:04.809Z,62.50
2018-03-03T08:44:44.485Z,58.75
2018-03-03T08:47:23.041Z,57.58
2018-03-03T08:50:00.037Z,56.83
2018-03-03T08:52:37.185Z,65.68
2018-03-03T08:55:12.975Z,59.55
2018-03-03T08:57:50.139Z,57.33
2018-03-03T09:00:26.061Z,64.65
2018-03-03T09:03:03.416Z,60.60
2018-03-03T09:05:42.197Z,60.67
2018-03-03T09:08:18.924Z,63.87
2018-03-03T09:10:56.454Z,67.82
2018-03-03T09:13:32.574Z,64.40
2018-03-03T09:16:09.178Z,53.95
2018-03-03T09:18:50.309Z,59.08
2018-03-03T09:21:29.671Z,58.80
2018-03-03T09:24:07.084Z,61.05
2018-03-03T09:26:44.860Z,60.58
2018-03-03T09:29:21.655Z,63.60
2018-03-03T09:31:57.292Z,69.78
2018-03-03T09:34:33.781Z,67.57
2018-03-03T09:37:15.421Z,62.60
2018-03-03T09:39:52.295Z,56.10
2018-03-03T09:42:34.924Z,60.35
2018-03-03T09:45:11.853Z,60.58
2018-03-03T09:47:47.668Z,61.50
2018-03-03T09:50:22.901Z,66.03
2018-03-03T09:53:00.800Z,61.37
2018-03-03T09:55:37.950Z,65.55
2018-03-03T09:58:14.740Z,60.63
2018-03-03T10:00:54.856Z,62.75
2018-03-03T10:03:24.317Z,61.67
2018-03-03T10:06:00.633Z,62.97
2018-03-03T10:08:39.915Z,65.43
2018-03-03T10:11:16.802Z,58.72
2018-03-03T10:13:55.508Z,60.85
2018-03-03T10:16:32.809Z,60.58
2018-03-03T10:19:15.996Z,65.47
2018-03-03T10:21:53.121Z,60.50
2018-03-03T10:24:29.302Z,59.53
2018-03-03T10:27:08.497Z,60.58
2018-03-03T10:29:45.979Z,62.00
2018-03-03T10:32:23.662Z,65.87
2018-03-03T10:35:00.162Z,56.55
2018-03-03T10:37:39.215Z,56.78
2018-03-03T10:40:16.091Z,56.97
2018-03-03T10:42:53.833Z,59.13
2018-03-03T10:45:30.546Z,62.65
2018-03-03T10:48:08.958Z,59.10
2018-03-03T10:50:46.000Z,55.22
2018-03-03T10:53:23.372Z,57.10
2018-03-03T10:56:01.839Z,57.50
2018-03-03T10:58:38.872Z,56.00
2018-03-03T11:01:17.209Z,57.15
2018-03-03T11:03:56.862Z,55.12
2018-03-03T11:06:34.819Z,59.97
2018-03-03T11:09:10.194Z,58.87
2018-03-03T11:11:46.948Z,60.65
2018-03-03T11:14:22.742Z,57.40
2018-03-03T11:16:59.119Z,57.50
2018-03-03T11:19:38.864Z,56.72
2018-03-03T11:22:16.977Z,58.90
2018-03-03T11:24:53.902Z,58.53
2018-03-03T11:27:32.673Z,56.80
2018-03-03T11:30:10.196Z,61.30
2018-03-03T11:32:47.173Z,58.75
2018-03-03T11:35:24.808Z,61.03
2018-03-03T11:38:00.489Z,63.97
2018-03-03T11:40:36.247Z,60.05
2018-03-03T11:43:14.509Z,60.53
2018-03-03T11:45:50.055Z,62.65
2018-03-03T11:48:28.881Z,59.10
2018-03-03T11:51:05.689Z,54.30
2018-03-03T11:53:43.872Z,63.80
2018-03-03T11:56:21.395Z,60.30
2018-03-03T11:59:00.022Z,60.72
2018-03-03T12:01:37.759Z,55.60
2018-03-03T12:04:14.177Z,56.83
2018-03-03T12:06:51.988Z,57.35
2018-03-03T12:09:28.477Z,57.50
2018-03-03T12:12:08.346Z,57.60
2018-03-03T12:14:45.460Z,59.38
2018-03-03T12:17:24.981Z,55.45
2018-03-03T12:20:02.373Z,53.75
2018-03-03T12:22:42.683Z,58.42
2018-03-03T12:25:19.901Z,58.78
2018-03-03T12:27:56.853Z,60.33
2018-03-03T12:30:35.999Z,54.53
2018-03-03T12:33:13.559Z,56.50
2018-03-03T12:35:49.641Z,59.10
2018-03-03T12:38:26.557Z,58.78
2018-03-03T12:41:04.220Z,60.33
2018-03-03T12:43:40.547Z,61.72
2018-03-03T12:46:18.102Z,63.33
2018-03-03T12:48:58.454Z,60.55
2018-03-03T12:51:35.549Z,52.65
2018-03-03T12:54:12.165Z,56.63
2018-03-03T12:56:49.237Z,57.20
2018-03-03T12:59:31.794Z,59.95
2018-03-03T13:02:07.800Z,59.58
2018-03-03T13:04:46.317Z,59.13
2018-03-03T13:07:25.567Z,56.45
2018-03-03T13:10:01.739Z,58.45
2018-03-03T13:12:37.050Z,56.47
2018-03-03T13:15:15.026Z,54.75
2018-03-03T13:17:52.343Z,59.58
2018-03-03T13:20:23.418Z,58.53
2018-03-03T13:22:58.744Z,54.00
2018-03-03T13:25:35.009Z,54.22
2018-03-03T13:28:13.096Z,60.00
2018-03-03T13:30:51.583Z,58.95
2018-03-03T13:33:30.086Z,55.67
2018-03-03T13:36:06.718Z,56.25
2018-03-03T13:38:44.915Z,56.35
2018-03-03T13:41:24.264Z,52.78
2018-03-03T13:44:01.802Z,56.37
2018-03-03T13:46:41.548Z,49.28
2018-03-03T13:49:17.087Z,53.67
2018-03-03T13:51:54.537Z,54.63
2018-03-03T13:54:32.531Z,55.97
2018-03-03T13:57:09.682Z,56.28
2018-03-03T13:59:46.432Z,53.33
2018-03-03T14:02:24.507Z,55.72
2018-03-03T14:05:00.299Z,52.80
2018-03-03T14:07:37.625Z,53.05
2018-03-03T14:10:15.474Z,54.25
2018-03-03T14:12:51.280Z,56.78
2018-03-03T14:15:28.997Z,55.75
2018-03-03T14:18:05.987Z,57.40
2018-03-03T14:20:43.947Z,52.25
2018-03-03T14:23:27.417Z,54.85
2018-03-03T14:26:05.945Z,48.40
2018-03-03T14:28:42.500Z,53.80
2018-03-03T14:31:20.307Z,49.75
2018-03-03T14:33:57.902Z,53.70
2018-03-03T14:36:35.526Z,51.67
2018-03-03T14:39:14.738Z,54.67
2018-03-03T14:41:52.382Z,53.08
2018-03-03T14:44:29.662Z,56.17
2018-03-03T14:47:06.300Z,52.47
2018-03-03T14:49:43.329Z,54.38
2018-03-03T14:52:20.014Z,53.08
2018-03-03T14:54:58.702Z,52.85
2018-03-03T14:57:35.852Z,54.28
2018-03-03T15:00:15.039Z,54.45
2018-03-03T15:02:54.608Z,57.40
2018-03-03T15:05:32.084Z,53.70
2018-03-03T15:08:11.650Z,56.80
2018-03-03T15:10:48.881Z,54.97
2018-03-03T15:13:25.160Z,56.10
2018-03-03T15:16:02.550Z,55.63
2018-03-03T15:18:38.244Z,55.00
2018-03-03T15:21:14.979Z,57.40
2018-03-03T15:23:51.230Z,55.67
2018-03-03T15:26:28.728Z,56.50
2018-03-03T15:29:06.484Z,55.45
2018-03-03T15:31:44.743Z,53.92
2018-03-03T15:34:21.394Z,54.70
2018-03-03T15:36:58.014Z,53.75
2018-03-03T15:39:33.679Z,53.97
2018-03-03T15:42:10.878Z,52.35
2018-03-03T15:44:47.874Z,51.53
2018-03-03T15:47:27.758Z,52.30
2018-03-03T15:50:06.131Z,52.08
2018-03-03T15:52:43.972Z,54.30
2018-03-03T15:55:26.481Z,51.28
2018-03-03T15:58:04.964Z,55.15
2018-03-03T16:00:45.266Z,54.08
2018-03-03T16:03:21.208Z,55.80
2018-03-03T16:05:58.005Z,52.17
2018-03-03T16:08:34.962Z,51.75
2018-03-03T16:11:12.963Z,54.63
2018-03-03T16:13:48.662Z,53.38
2018-03-03T16:16:30.487Z,57.35
2018-03-03T16:19:07.672Z,52.33
2018-03-03T16:21:43.924Z,50.47
2018-03-03T16:24:21.843Z,55.50
2018-03-03T16:26:58.643Z,55.03
2018-03-03T16:29:35.725Z,52.85
2018-03-03T16:32:13.468Z,55.50
2018-03-03T16:34:52.582Z,52.00
2018-03-03T16:37:30.069Z,48.15
2018-03-03T16:40:07.768Z,53.70
2018-03-03T16:42:45.021Z,50.05
2018-03-03T16:45:21.024Z,54.22
2018-03-03T16:47:58.515Z,54.15
2018-03-03T16:50:37.166Z,53.50
2018-03-03T16:53:13.763Z,55.70
2018-03-03T16:55:50.942Z,50.78
2018-03-03T16:58:26.498Z,51.78
2018-03-03T17:01:03.994Z,53.00
2018-03-03T17:03:41.999Z,49.13
2018-03-03T17:06:20.531Z,51.75
2018-03-03T17:08:58.392Z,50.22
2018-03-03T17:11:35.422Z,53.15
2018-03-03T17:14:11.999Z,46.42
2018-03-03T17:16:51.908Z,53.83
2018-03-03T17:19:27.676Z,49.03
2018-03-03T17:22:03.506Z,50.28
2018-03-03T17:24:39.541Z,47.78
2018-03-03T17:27:10.714Z,44.30
2018-03-03T17:29:49.467Z,46.03
2018-03-03T17:32:32.149Z,46.22
2018-03-03T17:35:11.859Z,46.33
2018-03-03T17:37:47.948Z,48.42
2018-03-03T17:40:24.244Z,46.85
2018-03-03T17:42:59.912Z,43.87
2018-03-03T17:45:39.277Z,44.75
2018-03-03T17:48:20.179Z,43.53
2018-03-03T17:50:57.558Z,43.92
2018-03-03T17:53:34.453Z,44.22
2018-03-03T17:56:13.866Z,43.67
2018-03-03T17:58:51.140Z,42.40
2018-03-03T18:01:29.114Z,41.42
2018-03-03T18:04:05.857Z,44.75
2018-03-03T18:06:42.584Z,44.17
2018-03-03T18:09:25.847Z,41.53
2018-03-03T18:12:05.657Z,44.45
2018-03-03T18:14:42.639Z,42.55
2018-03-03T18:17:19.548Z,46.90
2018-03-03T18:19:56.804Z,42.08
2018-03-03T18:22:35.088Z,43.30
2018-03-03T18:25:13.919Z,41.97
2018-03-03T18:27:49.486Z,42.75
2018-03-03T18:30:27.045Z,43.08
2018-03-03T18:33:03.448Z,52.50
2018-03-03T18:35:39.834Z,45.70
2018-03-03T18:38:15.232Z,48.60
2018-03-03T18:40:53.536Z,47.38
2018-03-03T18:43:32.565Z,53.67
2018-03-03T18:46:11.838Z,48.17
2018-03-03T18:48:49.007Z,48.08
2018-03-03T18:51:26.416Z,54.30
2018-03-03T18:54:02.355Z,49.90
2018-03-03T18:56:39.685Z,48.85
2018-03-03T18:59:17.861Z,49.60
2018-03-03T19:01:56.188Z,45.38
2018-03-03T19:04:33.220Z,52.70
2018-03-03T19:07:10.588Z,55.95
2018-03-03T19:09:49.616Z,53.08
2018-03-03T19:12:27.411Z,53.35
2018-03-03T19:15:04.101Z,53.13
2018-03-03T19:17:40.775Z,50.67
2018-03-03T19:20:18.181Z,50.30
2018-03-03T19:22:53.538Z,59.90
2018-03-03T19:25:29.290Z,52.40
2018-03-03T19:28:05.549Z,54.10
2018-03-03T19:30:41.892Z,50.55
2018-03-03T19:33:17.224Z,51.88
2018-03-03T19:35:55.469Z,53.33
2018-03-03T19:38:38.222Z,55.65
2018-03-03T19:41:15.669Z,53.30
2018-03-03T19:43:55.410Z,59.70
2018-03-03T19:46:34.238Z,54.55
2018-03-03T19:49:11.041Z,58.35
2018-03-03T19:51:47.919Z,57.60
2018-03-03T19:54:23.662Z,62.45
2018-03-03T19:56:59.206Z,53.78
2018-03-03T19:59:36.168Z,56.75
2018-03-03T20:02:12.246Z,56.92
2018-03-03T20:04:50.477Z,53.85
2018-03-03T20:07:27.643Z,56.65
2018-03-03T20:10:06.524Z,55.97
2018-03-03T20:12:42.127Z,55.58
2018-03-03T20:15:20.056Z,56.47
2018-03-03T20:17:55.525Z,62.88
2018-03-03T20:20:33.904Z,52.25
2018-03-03T20:23:09.679Z,54.50
2018-03-03T20:25:45.550Z,56.03
2018-03-03T20:28:20.697Z,56.85
2018-03-03T20:30:57.702Z,56.45
2018-03-03T20:33:33.563Z,55.72
2018-03-03T20:36:10.939Z,57.60
2018-03-03T20:38:46.450Z,56.17
2018-03-03T20:41:22.448Z,52.05
2018-03-03T20:43:59.368Z,52.30
2018-03-03T20:46:41.464Z,55.03
2018-03-03T20:49:22.148Z,61.88
2018-03-03T20:51:59.274Z,57.88
2018-03-03T20:54:37.488Z,58.80
2018-03-03T20:57:14.458Z,53.83
2018-03-03T20:59:54.171Z,53.78
2018-03-03T21:02:31.758Z,52.40
2018-03-03T21:05:08.244Z,57.50
2018-03-03T21:07:46.586Z,56.17
2018-03-03T21:10:21.986Z,58.60
2018-03-03T21:12:58.627Z,52.78
2018-03-03T21:15:35.496Z,58.28
2018-03-03T21:18:12.188Z,59.17
2018-03-03T21:20:48.359Z,58.95
2018-03-03T21:23:22.684Z,55.22
2018-03-03T21:26:00.371Z,62.53
2018-03-03T21:28:36.304Z,62.60
2018-03-03T21:31:14.991Z,61.90
2018-03-03T21:33:51.626Z,58.87
2018-03-03T21:36:26.967Z,60.20
2018-03-03T21:39:04.089Z,64.03
2018-03-03T21:41:41.547Z,60.22
2018-03-03T21:44:18.660Z,57.97
2018-03-03T21:46:54.455Z,60.45
2018-03-03T21:49:31.485Z,61.25
2018-03-03T21:52:08.216Z,62.40
2018-03-03T21:54:43.878Z,63.72
2018-03-03T21:57:21.228Z,59.63
2018-03-03T21:59:57.165Z,60.58
2018-03-03T22:02:34.870Z,60.05
2018-03-03T22:05:11.855Z,64.90
2018-03-03T22:07:47.739Z,65.35
2018-03-03T22:10:18.364Z,65.53
2018-03-03T22:12:54.162Z,61.15
2018-03-03T22:15:32.220Z,61.72
2018-03-03T22:18:09.008Z,58.45
2018-03-03T22:20:46.440Z,62.17
2018-03-03T22:23:24.019Z,58.75
2018-03-03T22:26:00.526Z,58.65
2018-03-03T22:28:36.391Z,55.95
2018-03-03T22:31:11.820Z,62.13
2018-03-03T22:33:50.681Z,59.03
2018-03-03T22:36:29.231Z,63.05
2018-03-03T22:39:05.475Z,58.25
2018-03-03T22:41:42.970Z,58.10
2018-03-03T22:44:18.693Z,60.70
2018-03-03T22:46:55.577Z,66.15
2018-03-03T22:49:32.465Z,64.40
2018-03-03T22:52:10.031Z,64.18
2018-03-03T22:54:46.949Z,63.58
2018-03-03T22:57:22.880Z,62.10
2018-03-03T22:59:59.776Z,59.65
2018-03-03T23:02:35.540Z,60.55
2018-03-03T23:05:11.993Z,61.80
2018-03-03T23:07:47.066Z,60.72
2018-03-03T23:10:26.381Z,62.72
2018-03-03T23:13:02.681Z,61.30
2018-03-03T23:15:38.785Z,63.28
2018-03-03T23:18:17.871Z,63.40
2018-03-03T23:20:57.285Z,62.33
2018-03-03T23:23:34.512Z,63.25
2018-03-03T23:26:10.378Z,60.95
2018-03-03T23:28:48.044Z,59.65
2018-03-03T23:31:23.750Z,64.95
2018-03-03T23:34:00.171Z,62.72
2018-03-03T23:36:35.691Z,61.95
2018-03-03T23:39:12.678Z,65.90
2018-03-03T23:41:54.287Z,65.47
2018-03-03T23:44:31.449Z,61.37
2018-03-03T23:47:11.344Z,63.33
2018-03-03T23:49:46.693Z,64.70
2018-03-03T23:52:23.371Z,66.15
2018-03-03T23:55:00.616Z,60.92
2018-03-03T23:57:43.033Z,65.70
